createdAt,value
2018-02-12T00:00:39.073Z,98107.34
2018-02-12T00:03:06.468Z,98096.97
2018-02-12T00:05:33.892Z,98088.15
2018-02-12T00:20:09.105Z,98112.24
2018-02-12T00:22:36.521Z,98125.47
2018-02-12T00:25:03.945Z,98127.26
2018-02-12T00:27:31.365Z,98130.23
2018-02-12T00:29:58.767Z,98135.91
2018-02-12T00:32:26.743Z,98135.58
2018-02-12T00:34:54.168Z,98129.59
2018-02-12T00:37:21.582Z,98131.65
2018-02-12T00:39:49.014Z,98127.84
2018-02-12T00:42:16.425Z,98130.28
2018-02-12T00:44:43.861Z,98142.64
2018-02-12T00:47:11.278Z,98142.11
2018-02-12T00:49:38.692Z,98146.39
2018-02-12T00:52:06.141Z,98144.99
2018-02-12T00:54:33.548Z,98154.94
2018-02-12T00:57:00.966Z,98159.48
2018-02-12T00:59:28.385Z,98154.66
2018-02-12T01:01:55.796Z,98165.91
2018-02-12T01:04:23.213Z,98168.58
2018-02-12T01:06:50.653Z,98166.51
2018-02-12T01:09:18.054Z,98157.20
2018-02-12T01:11:45.508Z,98164.37
2018-02-12T01:14:13.021Z,98160.09
2018-02-12T01:16:40.478Z,98167.36
2018-02-12T01:19:07.885Z,98170.83
2018-02-12T01:21:35.293Z,98170.36
2018-02-12T01:24:02.710Z,98166.79
2018-02-12T01:26:30.106Z,98168.77
2018-02-12T01:28:58.197Z,98170.52
2018-02-12T01:31:25.617Z,98168.22
2018-02-12T01:33:53.018Z,98172.23
2018-02-12T01:36:20.426Z,98161.97
2018-02-12T01:38:47.885Z,98164.34
2018-02-12T01:41:15.293Z,98162.41
2018-02-12T01:43:42.717Z,98161.07
2018-02-12T01:46:10.130Z,98170.58
2018-02-12T01:48:37.580Z,98166.07
2018-02-12T01:51:04.975Z,98167.89
2018-02-12T01:53:32.398Z,98162.83
2018-02-12T01:55:59.797Z,98168.69
2018-02-12T01:58:27.205Z,98170.48
2018-02-12T02:00:54.609Z,98164.02
2018-02-12T02:03:22.060Z,98161.42
2018-02-12T02:05:49.697Z,98171.84
2018-02-12T02:08:17.108Z,98163.24
2018-02-12T02:10:44.513Z,98162.98
2018-02-12T02:13:11.957Z,98169.52
2018-02-12T02:15:39.354Z,98175.20
2018-02-12T02:18:06.778Z,98173.41
2018-02-12T02:20:34.177Z,98172.48
2018-02-12T02:23:01.603Z,98172.76
2018-02-12T02:25:29.886Z,98165.63
2018-02-12T02:27:57.407Z,98170.16
2018-02-12T02:30:24.877Z,98178.63
2018-02-12T02:32:52.277Z,98171.84
2018-02-12T02:35:19.695Z,98180.32
2018-02-12T02:37:47.125Z,98175.25
2018-02-12T02:40:14.543Z,98179.14
2018-02-12T02:42:41.941Z,98180.77
2018-02-12T02:45:09.363Z,98190.52
2018-02-12T02:47:36.796Z,98192.94
2018-02-12T02:50:04.205Z,98192.12
2018-02-12T02:52:31.642Z,98190.43
2018-02-12T02:54:59.061Z,98192.27
2018-02-12T02:57:26.461Z,98193.86
2018-02-12T02:59:53.898Z,98192.56
2018-02-12T03:02:21.306Z,98187.96
2018-02-12T03:04:48.725Z,98190.27
2018-02-12T03:07:16.186Z,98185.96
2018-02-12T03:09:43.618Z,98187.98
2018-02-12T03:12:11.047Z,98189.66
2018-02-12T03:14:38.480Z,98192.42
2018-02-12T03:17:05.889Z,98193.95
2018-02-12T03:19:33.308Z,98188.47
2018-02-12T03:22:01.604Z,98186.81
2018-02-12T03:24:29.018Z,98187.87
2018-02-12T03:26:56.414Z,98192.63
2018-02-12T03:29:23.841Z,98192.45
2018-02-12T03:31:51.257Z,98195.83
2018-02-12T03:34:18.670Z,98203.42
2018-02-12T03:36:46.098Z,98204.27
2018-02-12T03:39:13.511Z,98203.45
2018-02-12T03:41:40.965Z,98199.75
2018-02-12T03:44:08.363Z,98197.30
2018-02-12T03:46:35.781Z,98205.81
2018-02-12T03:49:03.296Z,98205.55
2018-02-12T03:51:30.697Z,98202.52
2018-02-12T03:53:58.128Z,98206.92
2018-02-12T03:56:25.589Z,98206.77
2018-02-12T03:58:52.993Z,98213.09
2018-02-12T04:01:20.394Z,98217.13
2018-02-12T04:03:47.790Z,98219.98
2018-02-12T04:06:15.218Z,98219.10
2018-02-12T04:08:42.633Z,98224.08
2018-02-12T04:11:10.124Z,98220.58
2018-02-12T04:13:37.559Z,98225.70
2018-02-12T04:16:05.026Z,98229.38
2018-02-12T04:18:33.316Z,98226.72
2018-02-12T04:21:00.744Z,98235.77
2018-02-12T04:23:28.174Z,98227.94
2018-02-12T04:25:55.588Z,98231.25
2018-02-12T04:28:22.989Z,98232.00
2018-02-12T04:30:50.491Z,98232.00
2018-02-12T04:33:17.899Z,98228.41
2018-02-12T04:35:45.317Z,98232.34
2018-02-12T04:38:12.733Z,98229.69
2018-02-12T04:40:40.177Z,98233.36
2018-02-12T04:43:07.589Z,98232.43
2018-02-12T04:45:34.992Z,98226.16
2018-02-12T04:48:02.412Z,98226.06
2018-02-12T04:50:29.839Z,98234.75
2018-02-12T04:52:57.266Z,98229.89
2018-02-12T04:55:24.678Z,98232.37
2018-02-12T04:57:52.131Z,98231.07
2018-02-12T05:00:19.523Z,98231.31
2018-02-12T05:02:46.938Z,98233.94
2018-02-12T05:05:14.341Z,98239.84
2018-02-12T05:07:41.784Z,98237.76
2018-02-12T05:10:09.186Z,98243.66
2018-02-12T05:12:36.593Z,98244.56
2018-02-12T05:15:04.017Z,98250.07
2018-02-12T05:17:31.499Z,98254.23
2018-02-12T05:19:58.906Z,98251.62
2018-02-12T05:22:26.310Z,98264.18
2018-02-12T05:24:53.717Z,98264.77
2018-02-12T05:27:21.132Z,98267.97
2018-02-12T05:29:48.543Z,98273.50
2018-02-12T05:32:15.981Z,98280.36
2018-02-12T05:34:43.438Z,98281.32
2018-02-12T05:37:10.844Z,98289.36
2018-02-12T05:39:38.295Z,98289.82
2018-02-12T05:42:06.303Z,98293.24
2018-02-12T05:44:33.706Z,98298.15
2018-02-12T05:47:01.126Z,98306.05
2018-02-12T05:49:28.532Z,98305.31
2018-02-12T05:51:55.966Z,98309.14
2018-02-12T05:54:23.366Z,98318.64
2018-02-12T05:56:50.781Z,98320.59
2018-02-12T05:59:18.186Z,98331.40
2018-02-12T06:01:45.598Z,98330.99
2018-02-12T06:04:13.063Z,98340.30
2018-02-12T06:06:40.499Z,98343.52
2018-02-12T06:09:07.901Z,98349.32
2018-02-12T06:11:35.318Z,98356.65
2018-02-12T06:14:02.737Z,98357.22
2018-02-12T06:16:30.137Z,98365.41
2018-02-12T06:18:57.601Z,98372.61
2018-02-12T06:21:24.996Z,98373.03
2018-02-12T06:23:52.417Z,98382.73
2018-02-12T06:26:19.907Z,98378.11
2018-02-12T06:28:53.170Z,98381.63
2018-02-12T06:31:20.565Z,98381.70
2018-02-12T06:33:47.969Z,98381.44
2018-02-12T06:36:15.412Z,98378.00
2018-02-12T06:38:42.822Z,98386.14
2018-02-12T06:41:10.254Z,98391.91
2018-02-12T06:43:38.624Z,98393.42
2018-02-12T06:46:06.064Z,98400.28
2018-02-12T06:48:33.472Z,98407.63
2018-02-12T06:51:00.885Z,98400.30
2018-02-12T06:53:28.304Z,98410.69
2018-02-12T06:55:55.751Z,98423.68
2018-02-12T06:58:23.219Z,98425.70
2018-02-12T07:00:50.660Z,98434.67
2018-02-12T07:03:18.088Z,98441.59
2018-02-12T07:05:45.498Z,98439.48
2018-02-12T07:08:12.922Z,98444.81
2018-02-12T07:10:40.355Z,98460.30
2018-02-12T07:13:07.769Z,98463.09
2018-02-12T07:15:35.180Z,98466.95
2018-02-12T07:18:02.590Z,98465.88
2018-02-12T07:20:30.029Z,98468.92
2018-02-12T07:22:57.430Z,98474.03
2018-02-12T07:25:24.828Z,98468.34
2018-02-12T07:27:52.234Z,98468.70
2018-02-12T07:30:19.680Z,98472.03
2018-02-12T07:32:47.100Z,98481.00
2018-02-12T07:35:14.502Z,98483.39
2018-02-12T07:37:41.927Z,98478.91
2018-02-12T07:40:09.345Z,98489.84
2018-02-12T07:42:36.835Z,98491.78
2018-02-12T07:45:04.266Z,98497.44
2018-02-12T07:47:31.776Z,98504.27
2018-02-12T07:49:59.184Z,98500.47
2018-02-12T07:52:26.584Z,98506.45
2018-02-12T07:54:53.996Z,98512.44
2018-02-12T07:57:21.398Z,98513.45
2018-02-12T07:59:48.803Z,98506.56
2018-02-12T08:02:16.213Z,98505.41
2018-02-12T08:04:43.625Z,98515.37
2018-02-12T08:07:11.028Z,98517.33
2018-02-12T08:09:38.475Z,98522.91
2018-02-12T08:12:05.928Z,98513.84
2018-02-12T08:14:33.290Z,98524.39
2018-02-12T08:17:00.707Z,98528.56
2018-02-12T08:19:28.152Z,98540.33
2018-02-12T08:21:55.560Z,98540.92
2018-02-12T08:24:23.017Z,98537.95
2018-02-12T08:26:50.439Z,98547.23
2018-02-12T08:29:17.842Z,98545.87
2018-02-12T08:31:45.267Z,98548.86
2018-02-12T08:34:13.378Z,98560.34
2018-02-12T08:36:40.796Z,98551.88
2018-02-12T08:39:08.193Z,98560.11
2018-02-12T08:41:35.622Z,98565.52
2018-02-12T08:44:03.022Z,98570.42
2018-02-12T08:46:30.514Z,98568.48
2018-02-12T08:48:57.914Z,98579.94
2018-02-12T08:51:25.375Z,98577.59
2018-02-12T08:53:52.765Z,98581.91
2018-02-12T08:56:20.181Z,98587.22
2018-02-12T08:58:47.577Z,98587.33
2018-02-12T09:01:14.998Z,98595.64
2018-02-12T09:03:42.408Z,98597.14
2018-02-12T09:06:09.847Z,98602.70
2018-02-12T09:08:37.292Z,98602.02
2018-02-12T09:11:04.762Z,98606.86
2018-02-12T09:13:32.157Z,98614.06
2018-02-12T09:15:59.590Z,98619.22
2018-02-12T09:18:26.996Z,98618.66
2018-02-12T09:20:54.406Z,98624.98
2018-02-12T09:23:21.826Z,98622.93
2018-02-12T09:25:49.270Z,98622.09
2018-02-12T09:28:16.752Z,98632.16
2018-02-12T09:30:44.188Z,98632.85
2018-02-12T09:33:11.601Z,98638.28
2018-02-12T09:35:39.014Z,98635.39
2018-02-12T09:38:06.441Z,98636.44
2018-02-12T09:40:33.854Z,98631.95
2018-02-12T09:43:01.267Z,98632.85
2018-02-12T09:45:28.680Z,98634.68
2018-02-12T09:47:56.100Z,98631.17
2018-02-12T09:50:23.506Z,98634.31
2018-02-12T09:52:50.914Z,98633.27
2018-02-12T09:55:18.340Z,98642.64
2018-02-12T09:57:45.777Z,98650.51
2018-02-12T10:00:13.218Z,98647.19
2018-02-12T10:02:40.637Z,98663.00
2018-02-12T10:05:08.044Z,98660.78
2018-02-12T10:07:35.497Z,98658.95
2018-02-12T10:10:02.900Z,98661.73
2018-02-12T10:12:30.316Z,98662.46
2018-02-12T10:14:57.712Z,98668.80
2018-02-12T10:17:25.128Z,98664.11
2018-02-12T10:19:52.530Z,98661.19
2018-02-12T10:22:19.950Z,98678.47
2018-02-12T10:24:47.341Z,98674.98
2018-02-12T10:27:14.768Z,98667.94
2018-02-12T10:29:42.158Z,98678.42
2018-02-12T10:32:09.566Z,98673.06
2018-02-12T10:34:37.020Z,98688.37
2018-02-12T10:37:04.429Z,98688.98
2018-02-12T10:39:31.859Z,98694.89
2018-02-12T10:41:59.254Z,98697.17
2018-02-12T10:44:26.665Z,98695.61
2018-02-12T10:46:54.083Z,98704.55
2018-02-12T10:49:21.522Z,98706.43
2018-02-12T10:51:50.029Z,98707.69
2018-02-12T10:54:17.522Z,98703.38
2018-02-12T10:56:44.929Z,98709.31
2018-02-12T10:59:12.368Z,98706.45
2018-02-12T11:01:39.757Z,98708.09
2018-02-12T11:04:07.177Z,98705.04
2018-02-12T11:06:34.578Z,98710.23
2018-02-12T11:09:01.995Z,98705.42
2018-02-12T11:11:29.392Z,98702.90
2018-02-12T11:13:56.820Z,98702.16
2018-02-12T11:16:24.228Z,98707.34
2018-02-12T11:18:51.657Z,98696.60
2018-02-12T11:21:19.055Z,98696.55
2018-02-12T11:23:46.468Z,98704.77
2018-02-12T11:26:13.874Z,98707.05
2018-02-12T11:28:41.346Z,98693.06
2018-02-12T11:31:08.782Z,98698.30
2018-02-12T11:33:36.184Z,98692.49
2018-02-12T11:36:03.582Z,98679.86
2018-02-12T11:38:31.013Z,98694.70
2018-02-12T11:40:58.513Z,98688.92
2018-02-12T11:43:25.916Z,98682.78
2018-02-12T11:45:53.331Z,98686.01
2018-02-12T11:48:20.744Z,98694.47
2018-02-12T11:50:48.174Z,98698.54
2018-02-12T11:53:15.576Z,98704.17
2018-02-12T11:55:43.005Z,98709.86
2018-02-12T11:58:10.426Z,98716.39
2018-02-12T12:00:37.842Z,98710.85
2018-02-12T12:03:05.301Z,98712.94
2018-02-12T12:05:32.705Z,98699.91
2018-02-12T12:08:00.121Z,98704.58
2018-02-12T12:10:27.532Z,98699.08
2018-02-12T12:12:54.926Z,98702.11
2018-02-12T12:15:23.225Z,98704.58
2018-02-12T12:17:50.635Z,98709.80
2018-02-12T12:20:18.053Z,98712.30
2018-02-12T12:22:45.456Z,98725.59
2018-02-12T12:25:12.900Z,98723.80
2018-02-12T12:27:40.301Z,98714.75
2018-02-12T12:30:07.709Z,98718.22
2018-02-12T12:32:35.112Z,98714.38
2018-02-12T12:35:02.543Z,98708.73
2018-02-12T12:37:29.949Z,98702.50
2018-02-12T12:39:57.363Z,98698.14
2018-02-12T12:42:24.764Z,98687.97
2018-02-12T12:44:52.181Z,98694.37
2018-02-12T12:47:22.172Z,98708.08
2018-02-12T12:49:47.098Z,98718.41
2018-02-12T12:52:14.513Z,98719.44
2018-02-12T12:54:41.913Z,98732.95
2018-02-12T12:57:09.381Z,98739.19
2018-02-12T12:59:36.785Z,98736.04
2018-02-12T13:02:04.214Z,98746.11
2018-02-12T13:04:31.616Z,98743.34
2018-02-12T13:06:59.022Z,98745.00
2018-02-12T13:09:26.412Z,98737.13
2018-02-12T13:11:54.498Z,98736.84
2018-02-12T13:14:21.913Z,98730.86
2018-02-12T13:16:49.328Z,98734.02
2018-02-12T13:19:16.721Z,98731.62
2018-02-12T13:21:44.131Z,98729.55
2018-02-12T13:24:11.530Z,98730.73
2018-02-12T13:29:12.885Z,98724.18
2018-02-12T13:31:40.694Z,98735.31
2018-02-12T13:34:08.089Z,98752.88
2018-02-12T13:36:35.569Z,98755.29
2018-02-12T13:39:02.973Z,98763.92
2018-02-12T13:41:30.391Z,98769.72
2018-02-12T13:43:57.782Z,98764.00
2018-02-12T13:46:25.371Z,98757.23
2018-02-12T13:48:52.757Z,98761.86
2018-02-12T13:51:20.220Z,98755.05
2018-02-12T13:53:47.656Z,98759.01
2018-02-12T13:56:15.117Z,98758.85
2018-02-12T13:58:42.532Z,98760.81
2018-02-12T14:01:09.924Z,98757.89
2018-02-12T14:03:37.339Z,98761.92
2018-02-12T14:06:04.737Z,98762.98
2018-02-12T14:08:32.154Z,98770.81
2018-02-12T14:10:59.561Z,98785.12
2018-02-12T14:13:27.076Z,98798.16
2018-02-12T14:15:54.464Z,98797.95
2018-02-12T14:18:21.877Z,98794.12
2018-02-12T14:20:49.277Z,98787.28
2018-02-12T14:23:16.699Z,98790.38
2018-02-12T14:25:44.147Z,98788.33
2018-02-12T14:28:11.627Z,98775.42
2018-02-12T14:30:39.073Z,98777.61
2018-02-12T14:33:06.487Z,98769.90
2018-02-12T14:35:33.916Z,98765.10
2018-02-12T14:38:01.370Z,98764.31
2018-02-12T14:40:28.765Z,98762.19
2018-02-12T14:42:56.679Z,98767.22
2018-02-12T14:45:24.117Z,98768.89
2018-02-12T14:47:51.529Z,98767.21
2018-02-12T14:50:18.945Z,98772.81
2018-02-12T14:52:46.376Z,98767.73
2018-02-12T14:55:13.778Z,98766.97
2018-02-12T14:57:41.209Z,98771.06
2018-02-12T15:00:08.621Z,98770.81
2018-02-12T15:02:36.103Z,98763.30
2018-02-12T15:05:03.546Z,98770.66
2018-02-12T15:07:30.953Z,98771.28
2018-02-12T15:09:58.360Z,98776.45
2018-02-12T15:12:25.772Z,98774.37
2018-02-12T15:14:53.174Z,98777.09
2018-02-12T15:17:20.578Z,98775.00
2018-02-12T15:19:48.003Z,98770.50
2018-02-12T15:22:15.426Z,98779.73
2018-02-12T15:24:43.292Z,98777.80
2018-02-12T15:27:10.690Z,98775.97
2018-02-12T15:29:38.123Z,98779.00
2018-02-12T15:32:05.526Z,98779.73
2018-02-12T15:34:33.005Z,98782.45
2018-02-12T15:37:00.422Z,98790.44
2018-02-12T15:39:28.290Z,98788.25
2018-02-12T15:41:55.690Z,98791.86
2018-02-12T15:44:23.100Z,98800.66
2018-02-12T15:46:50.599Z,98801.61
2018-02-12T15:49:18.013Z,98802.19
2018-02-12T15:51:45.417Z,98803.59
2018-02-12T15:54:12.854Z,98802.34
2018-02-12T15:56:40.298Z,98802.05
2018-02-12T15:59:07.708Z,98812.67
2018-02-12T16:01:35.116Z,98811.91
2018-02-12T16:04:02.538Z,98818.69
2018-02-12T16:06:29.946Z,98827.30
2018-02-12T16:08:57.382Z,98852.01
2018-02-12T16:11:24.805Z,98857.64
2018-02-12T16:13:52.289Z,98857.84
2018-02-12T16:16:19.730Z,98858.90
2018-02-12T16:18:47.160Z,98856.78
2018-02-12T16:21:14.571Z,98858.41
2018-02-12T16:23:41.971Z,98856.69
2018-02-12T16:26:09.440Z,98851.70
2018-02-12T16:28:36.942Z,98855.56
2018-02-12T16:31:04.384Z,98858.34
2018-02-12T16:33:31.829Z,98856.69
2018-02-12T16:35:59.742Z,98866.25
2018-02-12T16:38:27.141Z,98861.80
2018-02-12T16:40:54.557Z,98862.39
2018-02-12T16:43:21.964Z,98864.08
2018-02-12T16:45:49.385Z,98868.92
2018-02-12T16:48:16.786Z,98866.63
2018-02-12T16:50:44.229Z,98874.55
2018-02-12T16:53:11.652Z,98874.06
2018-02-12T16:55:39.083Z,98875.45
2018-02-12T16:58:06.628Z,98885.60
2018-02-12T17:00:33.993Z,98886.20
2018-02-12T17:03:01.394Z,98888.70
2018-02-12T17:05:29.813Z,98887.83
2018-02-12T17:07:57.231Z,98895.27
2018-02-12T17:10:24.707Z,98892.27
2018-02-12T17:12:52.124Z,98897.02
2018-02-12T17:15:19.598Z,98896.33
2018-02-12T17:17:47.037Z,98900.47
2018-02-12T17:20:14.517Z,98897.48
2018-02-12T17:22:42.602Z,98905.11
2018-02-12T17:25:10.014Z,98903.57
2018-02-12T17:27:37.427Z,98902.06
2018-02-12T17:30:04.823Z,98906.88
2018-02-12T17:32:32.237Z,98908.84
2018-02-12T17:34:59.670Z,98912.08
2018-02-12T17:37:27.087Z,98906.01
2018-02-12T17:39:54.484Z,98907.62
2018-02-12T17:42:21.941Z,98919.09
2018-02-12T17:44:49.389Z,98920.24
2018-02-12T17:47:16.805Z,98916.31
2018-02-12T17:49:44.273Z,98919.25
2018-02-12T17:52:11.753Z,98923.46
2018-02-12T17:54:39.153Z,98922.10
2018-02-12T17:57:06.627Z,98930.08
2018-02-12T17:59:34.025Z,98925.59
2018-02-12T18:02:02.418Z,98928.39
2018-02-12T18:04:29.858Z,98938.20
2018-02-12T18:06:57.278Z,98938.30
2018-02-12T18:09:24.692Z,98933.69
2018-02-12T18:11:52.114Z,98933.81
2018-02-12T18:14:19.533Z,98935.27
2018-02-12T18:16:46.955Z,98943.59
2018-02-12T18:19:14.370Z,98938.50
2018-02-12T18:21:41.805Z,98930.88
2018-02-12T18:24:09.233Z,98939.43
2018-02-12T18:26:36.647Z,98935.05
2018-02-12T18:29:04.071Z,98943.53
2018-02-12T18:31:31.469Z,98945.42
2018-02-12T18:33:58.895Z,98947.19
2018-02-12T18:36:26.307Z,98947.06
2018-02-12T18:38:53.898Z,98954.10
2018-02-12T18:41:21.308Z,98951.86
2018-02-12T18:43:48.716Z,98955.80
2018-02-12T18:46:16.120Z,98955.90
2018-02-12T18:48:43.525Z,98949.06
2018-02-12T18:51:10.932Z,98962.20
2018-02-12T18:53:38.355Z,98958.29
2018-02-12T18:56:05.815Z,98963.31
2018-02-12T18:58:33.200Z,98970.19
2018-02-12T19:01:00.603Z,98977.38
2018-02-12T19:03:28.068Z,98972.36
2018-02-12T19:05:55.481Z,98975.09
2018-02-12T19:08:22.937Z,98978.91
2018-02-12T19:10:50.297Z,98974.79
2018-02-12T19:13:17.735Z,98979.73
2018-02-12T19:15:45.183Z,98980.86
2018-02-12T19:18:12.645Z,98986.23
2018-02-12T19:20:40.076Z,98986.05
2018-02-12T19:23:07.497Z,98988.57
2018-02-12T19:25:35.166Z,98985.78
2018-02-12T19:28:02.628Z,98986.70
2018-02-12T19:30:30.041Z,98988.19
2018-02-12T19:32:57.481Z,98990.42
2018-02-12T19:35:24.895Z,98994.73
2018-02-12T19:37:52.320Z,98991.97
2018-02-12T19:40:19.744Z,98991.38
2018-02-12T19:42:47.157Z,98997.75
2018-02-12T19:45:14.602Z,98990.89
2018-02-12T19:47:42.113Z,99002.27
2018-02-12T19:50:09.549Z,98995.36
2018-02-12T19:52:37.055Z,99001.64
2018-02-12T19:55:04.469Z,99001.52
2018-02-12T19:57:31.964Z,98998.22
2018-02-12T19:59:59.341Z,99000.23
2018-02-12T20:02:26.766Z,98993.30
2018-02-12T20:04:54.185Z,98997.64
2018-02-12T20:07:21.611Z,98999.42
2018-02-12T20:09:49.110Z,99005.83
2018-02-12T20:12:16.528Z,99004.41
2018-02-12T20:14:43.939Z,99005.22
2018-02-12T20:17:11.351Z,99009.83
2018-02-12T20:19:38.777Z,99009.31
2018-02-12T20:22:07.253Z,99010.38
2018-02-12T20:24:34.685Z,99008.84
2018-02-12T20:27:02.125Z,99009.63
2018-02-12T20:29:29.581Z,99012.16
2018-02-12T20:31:56.966Z,99017.27
2018-02-12T20:34:24.378Z,99012.52
2018-02-12T20:36:51.795Z,99014.81
2018-02-12T20:39:19.213Z,99016.39
2018-02-12T20:41:46.622Z,99022.66
2018-02-12T20:44:14.052Z,99021.95
2018-02-12T20:46:41.466Z,99019.41
2018-02-12T20:49:08.886Z,99020.28
2018-02-12T20:51:36.320Z,99022.98
2018-02-12T20:54:03.729Z,99026.50
2018-02-12T20:56:31.172Z,99015.86
2018-02-12T20:58:58.577Z,99024.01
2018-02-12T21:01:25.996Z,99023.45
2018-02-12T21:03:53.410Z,99025.08
2018-02-12T21:06:20.861Z,99030.32
2018-02-12T21:08:48.265Z,99024.50
2018-02-12T21:11:15.713Z,99026.08
2018-02-12T21:13:43.160Z,99028.30
2018-02-12T21:16:10.590Z,99025.83
2018-02-12T21:18:38.002Z,99029.23
2018-02-12T21:21:05.426Z,99031.16
2018-02-12T21:23:32.887Z,99033.81
2018-02-12T21:26:00.297Z,99029.57
2018-02-12T21:28:27.705Z,99034.25
2018-02-12T21:30:55.117Z,99042.94
2018-02-12T21:33:22.522Z,99037.25
2018-02-12T21:35:49.952Z,99032.57
2018-02-12T21:38:17.367Z,99033.00
2018-02-12T21:40:44.904Z,99045.08
2018-02-12T21:43:12.264Z,99037.07
2018-02-12T21:45:40.537Z,99032.52
2018-02-12T21:48:07.945Z,99045.25
2018-02-12T21:50:35.382Z,99032.20
2018-02-12T21:53:02.799Z,99036.09
2018-02-12T21:55:30.200Z,99035.78
2018-02-12T21:57:57.614Z,99038.19
2018-02-12T22:02:38.727Z,99041.09
2018-02-12T22:05:06.133Z,99041.70
2018-02-12T22:07:33.539Z,99040.88
2018-02-12T22:10:00.940Z,99037.31
2018-02-12T22:12:28.348Z,99037.01
2018-02-12T22:14:55.768Z,99034.37
2018-02-12T22:17:23.187Z,99042.17
2018-02-12T22:19:50.601Z,99042.84
2018-02-12T22:22:18.008Z,99043.59
2018-02-12T22:24:45.420Z,99040.56
2018-02-12T22:27:12.828Z,99038.42
2018-02-12T22:29:40.229Z,99036.00
2018-02-12T22:32:07.647Z,99036.06
2018-02-12T22:34:35.052Z,99040.32
2018-02-12T22:37:02.460Z,99041.98
2018-02-12T22:39:29.863Z,99044.12
2018-02-12T22:41:57.280Z,99041.98
2018-02-12T22:46:58.584Z,99038.59
2018-02-12T22:49:25.988Z,99045.23
2018-02-12T22:51:53.408Z,99036.98
2018-02-12T22:54:20.818Z,99041.29
2018-02-12T22:56:48.228Z,99038.59
2018-02-12T22:59:15.637Z,99042.04
2018-02-12T23:01:43.756Z,99042.33
2018-02-12T23:04:11.171Z,99036.89
2018-02-12T23:06:38.568Z,99038.77
2018-02-12T23:09:05.983Z,99045.60
2018-02-12T23:11:33.389Z,99046.81
2018-02-12T23:14:00.816Z,99037.83
2018-02-12T23:16:28.223Z,99044.62
2018-02-12T23:18:55.637Z,99038.34
2018-02-12T23:21:23.053Z,99045.56
2018-02-12T23:23:50.470Z,99042.84
2018-02-12T23:26:17.884Z,99037.66
2018-02-12T23:28:45.292Z,99032.02
2018-02-12T23:31:12.694Z,99026.24
2018-02-12T23:33:40.104Z,99028.07
2018-02-12T23:36:07.522Z,99024.27
2018-02-12T23:38:34.920Z,99027.28
2018-02-12T23:41:02.335Z,99028.89
2018-02-12T23:43:29.748Z,99028.75
2018-02-12T23:45:57.155Z,99028.51
2018-02-12T23:48:24.569Z,99024.28
2018-02-12T23:50:51.964Z,99027.35
2018-02-12T23:53:19.386Z,99027.04
2018-02-12T23:55:46.784Z,99032.34
2018-02-12T23:58:14.206Z,99032.81
